Time;durP1;ratioP1;P1;durP2;ratioP2;P2;SDS_P1;SDS_P2;PMS_P1;PMS_P2;Temp;Humidity;BMP_temperature;BMP_pressure;BME280_temperature;BME280_humidity;BME280_pressure;Samples;Min_cycle;Max_cycle;Signal;HPM_P1;HPM_P2
2021/09/23 00:00:58;;;;;;;57.70;34.13;;;10.70;99.90;;;;;;2096718;28;20112;-72
2021/09/23 00:02:03;;;;;;;64.20;34.90;;;10.90;99.90;;;;;;2096275;28;20021;-71
2021/09/23 00:03:20;;;;;;;66.00;36.40;;;11.10;99.90;;;;;;2101747;28;20024;-72
2021/09/23 00:04:31;;;;;;;62.05;36.67;;;11.20;99.90;;;;;;2096431;28;20025;-71
2021/09/23 00:05:32;;;;;;;63.55;36.20;;;11.30;99.90;;;;;;2093897;28;20020;-71
2021/09/23 00:06:33;;;;;;;62.55;32.97;;;11.40;99.90;;;;;;2083664;28;20604;-72
2021/09/23 00:07:33;;;;;;;61.78;33.22;;;11.40;99.90;;;;;;2084066;28;20028;-74
2021/09/23 00:08:34;;;;;;;57.40;34.20;;;11.50;99.90;;;;;;2083985;28;20043;-72
2021/09/23 00:09:35;;;;;;;54.38;33.17;;;11.50;99.90;;;;;;2095456;28;20020;-71
2021/09/23 00:10:38;;;;;;;59.72;33.63;;;11.60;99.90;;;;;;2103959;28;20511;-72
2021/09/23 00:11:39;;;;;;;59.00;34.08;;;11.70;99.90;;;;;;2103881;28;20021;-72
2021/09/23 00:12:40;;;;;;;60.83;32.75;;;11.80;99.90;;;;;;2101569;28;20021;-72
2021/09/23 00:13:40;;;;;;;52.83;31.90;;;11.80;99.90;;;;;;2098658;28;20052;-72
2021/09/23 00:14:41;;;;;;;52.17;29.90;;;11.80;99.90;;;;;;2097090;28;20020;-72
2021/09/23 00:15:43;;;;;;;50.70;31.23;;;11.90;99.90;;;;;;2092604;28;20043;-71
2021/09/23 00:16:43;;;;;;;50.75;30.10;;;11.90;99.90;;;;;;2091564;28;20029;-72
2021/09/23 00:17:48;;;;;;;51.25;30.67;;;11.90;99.90;;;;;;2090183;28;20465;-72
2021/09/23 00:18:50;;;;;;;48.33;29.90;;;11.90;99.90;;;;;;2082355;28;20025;-72
2021/09/23 00:19:51;;;;;;;48.75;29.15;;;12.00;99.90;;;;;;2082252;28;20036;-71
2021/09/23 00:20:51;;;;;;;45.58;28.65;;;12.00;99.90;;;;;;2081372;28;20026;-71
2021/09/23 00:21:52;;;;;;;48.13;28.23;;;12.00;99.90;;;;;;2089699;28;20040;-71
2021/09/23 00:22:53;;;;;;;43.28;28.38;;;12.00;99.90;;;;;;2099108;28;20102;-72
2021/09/23 00:23:54;;;;;;;51.65;29.38;;;12.00;99.90;;;;;;2094788;28;20059;-73
2021/09/23 00:24:55;;;;;;;45.47;28.20;;;11.90;99.90;;;;;;2091972;28;20036;-72
2021/09/23 00:25:56;;;;;;;49.60;27.73;;;11.80;99.90;;;;;;2090979;28;20017;-71
2021/09/23 00:26:56;;;;;;;45.15;28.42;;;11.70;99.90;;;;;;2091871;28;20037;-72
2021/09/23 00:27:58;;;;;;;48.40;28.90;;;11.70;99.90;;;;;;2099179;28;20043;-70
2021/09/23 00:28:59;;;;;;;47.40;28.85;;;11.60;99.90;;;;;;2098650;28;20492;-71
2021/09/23 00:30:00;;;;;;;43.97;27.88;;;11.60;99.90;;;;;;2090114;28;20063;-71
2021/09/23 00:31:00;;;;;;;43.92;27.15;;;11.50;99.90;;;;;;2081522;28;20080;-72
2021/09/23 00:32:01;;;;;;;47.65;28.95;;;11.40;99.90;;;;;;2087987;28;20391;-71
2021/09/23 00:33:02;;;;;;;45.75;27.45;;;11.40;99.90;;;;;;2081425;28;20031;-72
2021/09/23 00:34:03;;;;;;;43.50;28.90;;;11.30;99.90;;;;;;2086158;28;20044;-71
2021/09/23 00:35:05;;;;;;;41.72;27.70;;;11.20;99.90;;;;;;2098844;28;20308;-72
2021/09/23 00:36:06;;;;;;;;;;;11.10;99.90;;;;;;2096905;28;20047;-72
2021/09/23 00:37:06;;;;;;;46.03;27.25;;;11.00;99.90;;;;;;2087584;28;19930;-72
2021/09/23 00:38:07;;;;;;;46.22;27.83;;;11.00;99.90;;;;;;2087045;28;20025;-73
2021/09/23 00:39:08;;;;;;;49.63;28.08;;;10.90;99.90;;;;;;2092183;28;20021;-71
2021/09/23 00:40:09;;;;;;;46.17;28.20;;;10.90;99.90;;;;;;2081799;28;20475;-73
2021/09/23 00:41:10;;;;;;;42.92;27.25;;;10.90;99.90;;;;;;2081507;28;20421;-73
2021/09/23 00:42:11;;;;;;;42.47;27.02;;;10.80;99.90;;;;;;2090715;28;20021;-71
2021/09/23 00:43:12;;;;;;;45.55;27.67;;;10.80;99.90;;;;;;2095215;28;20116;-72
2021/09/23 00:44:21;;;;;;;48.75;28.92;;;10.70;99.90;;;;;;2089946;28;20072;-72
2021/09/23 00:45:22;;;;;;;46.67;28.08;;;10.70;99.90;;;;;;2082991;28;20022;-71
2021/09/23 00:46:23;;;;;;;46.78;28.58;;;10.70;99.90;;;;;;2091953;28;20021;-72
2021/09/23 00:47:24;;;;;;;42.33;27.20;;;10.60;99.90;;;;;;2081731;28;20497;-72
2021/09/23 00:48:24;;;;;;;46.75;28.27;;;10.50;99.90;;;;;;2080234;28;20112;-73
2021/09/23 00:49:25;;;;;;;45.95;27.75;;;10.50;99.90;;;;;;2082018;28;20397;-72
2021/09/23 00:50:26;;;;;;;44.83;27.77;;;10.40;99.90;;;;;;2098695;28;20020;-73
2021/09/23 00:51:27;;;;;;;46.00;28.05;;;10.40;99.90;;;;;;2098534;28;20462;-72
2021/09/23 00:52:31;;;;;;;48.78;28.98;;;10.40;99.90;;;;;;2098814;28;20543;-72
2021/09/23 00:53:31;;;;;;;48.72;28.38;;;10.40;99.90;;;;;;2092425;28;20040;-72
2021/09/23 00:54:32;;;;;;;43.17;26.80;;;10.30;99.90;;;;;;2090383;28;20496;-70
2021/09/23 00:55:33;;;;;;;50.33;28.33;;;10.30;99.90;;;;;;2090360;28;20079;-72
2021/09/23 00:56:34;;;;;;;48.38;28.55;;;10.30;99.90;;;;;;2095833;28;20109;-71
2021/09/23 00:57:35;;;;;;;49.63;29.45;;;10.30;99.90;;;;;;2089897;28;20041;-72
2021/09/23 00:58:36;;;;;;;55.17;28.98;;;10.20;99.90;;;;;;2083891;28;20025;-71
2021/09/23 00:59:37;;;;;;;50.72;28.05;;;10.20;99.90;;;;;;2090309;28;20020;-72
2021/09/23 01:00:38;;;;;;;48.90;28.38;;;10.20;99.90;;;;;;2090651;28;20371;-72
2021/09/23 01:01:45;;;;;;;49.47;28.92;;;10.10;99.90;;;;;;2093222;28;20036;-71
2021/09/23 01:02:46;;;;;;;48.28;28.08;;;10.00;99.90;;;;;;2089829;28;20040;-72
2021/09/23 01:03:46;;;;;;;49.85;29.83;;;10.00;99.90;;;;;;2083253;28;20022;-71
2021/09/23 01:04:47;;;;;;;50.05;28.73;;;10.00;99.90;;;;;;2090204;28;20029;-72
2021/09/23 01:05:48;;;;;;;49.42;28.85;;;10.00;99.90;;;;;;2089281;28;20075;-73
2021/09/23 01:06:51;;;;;;;48.20;29.13;;;9.90;99.90;;;;;;2087040;28;20088;-73
2021/09/23 01:07:51;;;;;;;47.00;28.60;;;9.90;99.90;;;;;;2090013;28;20028;-72
2021/09/23 01:08:57;;;;;;;49.25;29.23;;;9.80;99.90;;;;;;2096744;28;20025;-73
2021/09/23 01:09:58;;;;;;;54.13;27.77;;;9.80;99.90;;;;;;2098664;28;20044;-72
2021/09/23 01:10:58;;;;;;;48.85;28.52;;;9.80;99.90;;;;;;2088980;28;20370;-73
2021/09/23 01:11:59;;;;;;;52.67;29.63;;;9.70;99.90;;;;;;2094638;28;20640;-71
2021/09/23 01:13:00;;;;;;;49.83;28.70;;;9.70;99.90;;;;;;2090297;28;20032;-72
2021/09/23 01:14:01;;;;;;;50.88;27.73;;;9.70;99.90;;;;;;2091373;28;20029;-72
2021/09/23 01:15:01;;;;;;;46.75;28.45;;;9.70;99.90;;;;;;2091916;28;20483;-72
2021/09/23 01:16:02;;;;;;;45.38;28.08;;;9.60;99.90;;;;;;2097258;28;20096;-72
2021/09/23 01:17:04;;;;;;;52.22;29.38;;;9.60;99.90;;;;;;2095956;28;20404;-72
2021/09/23 01:18:05;;;;;;;52.97;29.45;;;9.50;99.90;;;;;;2090403;28;20021;-72
2021/09/23 01:19:06;;;;;;;49.08;28.35;;;9.50;99.90;;;;;;2096479;28;20048;-72
2021/09/23 01:20:07;;;;;;;46.72;27.83;;;9.60;99.90;;;;;;2089509;28;20127;-72
2021/09/23 01:21:09;;;;;;;51.78;29.48;;;9.60;99.90;;;;;;2089625;28;20029;-72
2021/09/23 01:22:11;;;;;;;46.95;26.55;;;9.60;99.90;;;;;;2087881;28;20033;-72
2021/09/23 01:23:12;;;;;;;50.92;28.83;;;9.60;99.90;;;;;;2089574;28;20116;-72
2021/09/23 01:24:12;;;;;;;55.10;30.17;;;9.50;99.90;;;;;;2088562;28;20025;-72
2021/09/23 01:25:16;;;;;;;53.97;30.67;;;9.60;99.90;;;;;;2093617;28;20039;-71
2021/09/23 01:26:23;;;;;;;55.13;30.60;;;9.60;99.90;;;;;;2098011;28;20021;-72
2021/09/23 01:27:24;;;;;;;50.28;30.00;;;9.60;99.90;;;;;;2099860;28;20023;-74
2021/09/23 01:28:25;;;;;;;53.42;28.83;;;9.60;99.90;;;;;;2090786;28;20531;-71
2021/09/23 01:29:26;;;;;;;51.20;28.73;;;9.70;99.90;;;;;;2091301;28;20020;-71
2021/09/23 01:30:26;;;;;;;57.65;29.45;;;9.70;99.90;;;;;;2098826;28;20546;-71
2021/09/23 01:31:27;;;;;;;50.72;28.88;;;9.70;99.90;;;;;;2097370;28;20066;-74
2021/09/23 01:32:28;;;;;;;52.13;29.98;;;9.70;99.90;;;;;;2089225;28;20478;-72
2021/09/23 01:33:29;;;;;;;48.83;30.27;;;9.60;99.90;;;;;;2097642;28;20029;-72
2021/09/23 01:34:29;;;;;;;51.58;30.92;;;9.60;99.90;;;;;;2098381;28;20071;-72
2021/09/23 01:35:30;;;;;;;51.67;28.40;;;9.60;99.90;;;;;;2091965;28;20467;-72
2021/09/23 01:36:31;;;;;;;50.20;29.58;;;9.60;99.90;;;;;;2096420;28;20024;-72
2021/09/23 01:37:31;;;;;;;57.72;30.80;;;9.50;99.90;;;;;;2103837;28;20032;-71
2021/09/23 01:38:32;;;;;;;55.20;31.27;;;9.50;99.90;;;;;;2098086;28;20035;-72
2021/09/23 01:39:33;;;;;;;50.78;29.80;;;9.50;99.90;;;;;;2098232;28;20029;-72
2021/09/23 01:40:36;;;;;;;57.63;30.77;;;9.50;99.90;;;;;;2098448;28;20108;-72
2021/09/23 01:41:37;;;;;;;53.40;30.60;;;9.40;99.90;;;;;;2094570;28;20056;-72
2021/09/23 01:42:41;;;;;;;61.53;32.33;;;9.40;99.90;;;;;;2097485;28;20508;-71
2021/09/23 01:43:42;;;;;;;56.80;30.98;;;9.40;99.90;;;;;;2097639;28;20101;-71
2021/09/23 01:44:42;;;;;;;55.17;30.55;;;9.40;99.90;;;;;;2095741;28;20016;-72
2021/09/23 01:45:44;;;;;;;53.80;30.73;;;9.40;99.90;;;;;;2101577;28;20016;-72
2021/09/23 01:46:45;;;;;;;63.28;32.95;;;9.40;99.90;;;;;;2099875;28;20017;-72
2021/09/23 01:47:46;;;;;;;55.63;31.02;;;9.30;99.90;;;;;;2098362;28;20078;-72
2021/09/23 01:48:46;;;;;;;57.30;32.35;;;9.40;99.90;;;;;;2097813;28;20110;-72
2021/09/23 01:49:47;;;;;;;62.60;32.53;;;9.40;99.90;;;;;;2096079;28;20060;-72
2021/09/23 01:50:48;;;;;;;59.92;31.98;;;9.40;99.90;;;;;;2102654;28;20017;-72
2021/09/23 01:51:49;;;;;;;61.67;32.72;;;9.30;99.90;;;;;;2104291;28;20078;-72
2021/09/23 01:52:49;;;;;;;57.17;32.10;;;9.30;99.90;;;;;;2106414;28;20653;-72
2021/09/23 01:53:50;;;;;;;56.08;30.95;;;9.30;99.90;;;;;;2106591;28;20032;-73
2021/09/23 01:54:51;;;;;;;54.15;30.20;;;9.30;99.90;;;;;;2097237;28;20052;-72
2021/09/23 01:55:52;;;;;;;55.63;31.67;;;9.30;99.90;;;;;;2097795;28;20051;-72
2021/09/23 01:56:53;;;;;;;60.15;32.03;;;9.30;99.90;;;;;;2106401;28;20024;-72
2021/09/23 01:57:54;;;;;;;56.95;32.25;;;9.30;99.90;;;;;;2106155;28;20016;-72
2021/09/23 01:58:55;;;;;;;59.58;33.15;;;9.30;99.90;;;;;;2098220;28;20075;-72
2021/09/23 01:59:56;;;;;;;52.50;31.10;;;9.20;99.90;;;;;;2097004;28;20021;-71
2021/09/23 02:00:56;;;;;;;59.60;31.85;;;9.20;99.90;;;;;;2095423;28;20469;-72
2021/09/23 02:01:57;;;;;;;59.45;30.80;;;9.20;99.90;;;;;;2103521;28;20050;-72
2021/09/23 02:02:57;;;;;;;56.10;30.55;;;9.20;99.90;;;;;;2097448;28;20098;-73
2021/09/23 02:03:59;;;;;;;53.88;32.05;;;9.20;99.90;;;;;;2089466;28;20097;-72
2021/09/23 02:04:59;;;;;;;58.38;31.25;;;9.20;99.90;;;;;;2100606;28;20030;-72
2021/09/23 02:06:00;;;;;;;62.63;33.08;;;9.20;99.90;;;;;;2106540;28;20039;-72
2021/09/23 02:07:02;;;;;;;63.03;32.28;;;9.20;99.90;;;;;;2091093;28;20098;-72
2021/09/23 02:08:03;;;;;;;56.13;31.45;;;9.20;99.90;;;;;;2091998;28;20632;-72
2021/09/23 02:09:04;;;;;;;56.97;32.92;;;9.10;99.90;;;;;;2097896;28;20024;-72
2021/09/23 02:10:05;;;;;;;62.78;33.45;;;9.10;99.90;;;;;;2100220;28;20020;-72
2021/09/23 02:11:06;;;;;;;59.30;33.42;;;9.10;99.90;;;;;;2106599;28;20024;-72
2021/09/23 02:12:07;;;;;;;60.10;33.08;;;9.10;99.90;;;;;;2100401;28;20433;-72
2021/09/23 02:13:07;;;;;;;61.92;32.50;;;9.10;99.90;;;;;;2102945;28;20028;-72
2021/09/23 02:14:08;;;;;;;61.72;32.72;;;9.10;99.90;;;;;;2089421;28;20070;-72
2021/09/23 02:15:09;;;;;;;66.28;33.90;;;9.20;99.90;;;;;;2097140;28;20028;-72
2021/09/23 02:16:10;;;;;;;68.70;35.78;;;9.20;99.90;;;;;;2105827;28;20050;-72
2021/09/23 02:17:11;;;;;;;63.58;35.50;;;9.20;99.90;;;;;;2106598;28;20028;-74
2021/09/23 02:18:11;;;;;;;62.25;34.40;;;9.20;99.90;;;;;;2104754;28;20103;-72
2021/09/23 02:19:12;;;;;;;63.50;35.33;;;9.20;99.90;;;;;;2098832;28;20559;-72
2021/09/23 02:20:13;;;;;;;62.58;34.97;;;9.20;99.90;;;;;;2098247;28;20021;-71
2021/09/23 02:21:14;;;;;;;65.88;34.13;;;9.20;99.90;;;;;;2088928;28;20029;-72
2021/09/23 02:22:15;;;;;;;67.95;34.30;;;9.20;99.90;;;;;;2093466;28;20012;-73
2021/09/23 02:23:16;;;;;;;67.38;33.67;;;9.20;99.90;;;;;;2096730;28;20480;-71
2021/09/23 02:24:16;;;;;;;65.05;35.55;;;9.20;99.90;;;;;;2089120;28;20088;-72
2021/09/23 02:25:17;;;;;;;64.68;34.75;;;9.20;99.90;;;;;;2089994;28;20036;-72
2021/09/23 02:26:18;;;;;;;64.93;33.92;;;9.20;99.90;;;;;;2095381;28;20031;-71
2021/09/23 02:27:20;;;;;;;61.92;32.47;;;9.20;99.90;;;;;;2101852;28;20012;-72
2021/09/23 02:28:21;;;;;;;60.53;32.90;;;9.20;99.90;;;;;;2096495;28;20024;-72
2021/09/23 02:29:21;;;;;;;64.75;34.30;;;9.20;99.90;;;;;;2096414;28;20025;-72
2021/09/23 02:30:24;;;;;;;63.53;33.22;;;9.20;99.90;;;;;;2104024;28;20101;-72
2021/09/23 02:31:24;;;;;;;62.30;33.00;;;9.20;99.90;;;;;;2097900;28;20020;-73
2021/09/23 02:32:25;;;;;;;64.40;33.00;;;9.10;99.90;;;;;;2088895;28;20025;-72
2021/09/23 02:33:26;;;;;;;68.03;34.25;;;9.10;99.90;;;;;;2088848;28;20028;-72
2021/09/23 02:34:26;;;;;;;60.08;31.85;;;9.10;99.90;;;;;;2102440;28;20036;-72
2021/09/23 02:35:28;;;;;;;59.97;32.15;;;9.00;99.90;;;;;;2100660;28;20036;-72
2021/09/23 02:36:29;;;;;;;61.88;32.45;;;9.00;99.90;;;;;;2106077;28;20023;-72
2021/09/23 02:37:30;;;;;;;56.53;30.90;;;9.00;99.90;;;;;;2105729;28;20036;-75
2021/09/23 02:38:30;;;;;;;61.47;32.75;;;8.90;99.90;;;;;;2088893;28;20029;-72
2021/09/23 02:39:32;;;;;;;61.70;32.00;;;8.90;99.90;;;;;;2088964;28;20154;-72
2021/09/23 02:40:33;;;;;;;67.57;33.00;;;8.90;99.90;;;;;;2089441;28;20096;-73
2021/09/23 02:41:33;;;;;;;61.75;33.47;;;8.80;99.90;;;;;;2093271;28;20047;-72
2021/09/23 02:42:35;;;;;;;60.60;31.73;;;8.80;99.90;;;;;;2096529;28;20020;-72
2021/09/23 02:43:36;;;;;;;65.10;33.78;;;8.80;99.90;;;;;;2090193;28;20036;-73
2021/09/23 02:44:36;;;;;;;64.55;31.83;;;8.80;99.90;;;;;;2093541;28;20029;-72
2021/09/23 02:45:37;;;;;;;64.55;32.58;;;8.70;99.90;;;;;;2097355;28;20078;-72
2021/09/23 02:46:37;;;;;;;59.42;32.47;;;8.80;99.90;;;;;;2093895;28;20557;-72
2021/09/23 02:47:38;;;;;;;55.08;31.23;;;8.80;99.90;;;;;;2096562;28;20447;-71
2021/09/23 02:48:39;;;;;;;63.83;32.65;;;8.80;99.90;;;;;;2088291;28;20013;-72
2021/09/23 02:49:40;;;;;;;64.75;33.78;;;8.80;99.90;;;;;;2091720;28;20132;-71
2021/09/23 02:50:40;;;;;;;62.58;33.75;;;8.70;99.90;;;;;;2094370;28;20670;-71
2021/09/23 02:51:41;;;;;;;57.90;31.25;;;8.70;99.90;;;;;;2100213;28;20388;-72
2021/09/23 02:52:42;;;;;;;63.30;32.10;;;8.70;99.90;;;;;;2088807;28;20078;-71
2021/09/23 02:53:43;;;;;;;61.65;31.80;;;8.70;99.90;;;;;;2088334;28;20115;-72
2021/09/23 02:54:44;;;;;;;61.25;32.33;;;8.70;99.90;;;;;;2090987;28;20029;-72
2021/09/23 02:55:45;;;;;;;63.92;30.75;;;8.70;99.90;;;;;;2096015;28;20373;-72
2021/09/23 02:56:46;;;;;;;56.78;30.25;;;8.70;99.90;;;;;;2093256;28;20099;-71
2021/09/23 02:57:46;;;;;;;61.15;32.40;;;8.70;99.90;;;;;;2088696;28;20514;-72
2021/09/23 02:58:47;;;;;;;61.42;31.42;;;8.70;99.90;;;;;;2097224;28;20025;-72
2021/09/23 02:59:48;;;;;;;59.97;31.52;;;8.70;99.90;;;;;;2096662;28;20036;-72
2021/09/23 03:00:49;;;;;;;63.97;31.45;;;8.60;99.90;;;;;;2096848;28;20038;-72
2021/09/23 03:01:49;;;;;;;59.60;31.23;;;8.60;99.90;;;;;;2094812;28;20032;-71
2021/09/23 03:02:50;;;;;;;62.13;32.15;;;8.60;99.90;;;;;;2097143;28;20020;-72
2021/09/23 03:03:51;;;;;;;64.70;33.60;;;8.60;99.90;;;;;;2096334;28;20028;-72
2021/09/23 03:04:51;;;;;;;62.40;32.58;;;8.60;99.90;;;;;;2097306;28;20020;-72
2021/09/23 03:05:52;;;;;;;67.10;32.75;;;8.60;99.90;;;;;;2097084;28;20039;-71
2021/09/23 03:06:53;;;;;;;65.28;33.40;;;8.50;99.90;;;;;;2094994;28;20459;-73
2021/09/23 03:07:54;;;;;;;66.35;34.03;;;8.50;99.90;;;;;;2089695;28;20208;-72
2021/09/23 03:08:54;;;;;;;61.25;31.70;;;8.50;99.90;;;;;;2089089;28;20021;-72
2021/09/23 03:09:55;;;;;;;60.13;31.35;;;8.60;99.90;;;;;;2090748;28;20099;-72
2021/09/23 03:10:56;;;;;;;58.45;31.60;;;8.60;99.90;;;;;;2089003;28;20047;-71
2021/09/23 03:11:56;;;;;;;62.90;32.38;;;8.60;99.90;;;;;;2094812;28;20111;-72
2021/09/23 03:12:57;;;;;;;56.03;30.77;;;8.60;99.90;;;;;;2088876;28;20017;-72
2021/09/23 03:13:58;;;;;;;63.67;32.65;;;8.60;99.90;;;;;;2092171;28;20029;-72
2021/09/23 03:14:58;;;;;;;62.05;31.75;;;8.60;99.90;;;;;;2089853;28;20461;-72
2021/09/23 03:16:00;;;;;;;61.00;32.08;;;8.60;99.90;;;;;;2091095;28;20412;-72
2021/09/23 03:17:00;;;;;;;64.97;32.97;;;8.50;99.90;;;;;;2083767;28;20480;-72
2021/09/23 03:18:02;;;;;;;62.33;32.47;;;8.50;99.90;;;;;;2088839;28;20112;-72
2021/09/23 03:19:03;;;;;;;55.20;29.55;;;8.50;99.90;;;;;;2093098;28;20012;-72
2021/09/23 03:20:04;;;;;;;58.75;30.55;;;8.40;99.90;;;;;;2091301;28;20388;-72
2021/09/23 03:21:05;;;;;;;60.10;31.63;;;8.40;99.90;;;;;;2088495;28;20021;-72
2021/09/23 03:22:06;;;;;;;62.08;31.75;;;8.40;99.90;;;;;;2091657;28;20255;-72
2021/09/23 03:23:06;;;;;;;59.67;31.98;;;8.40;99.90;;;;;;2089411;28;20385;-72
2021/09/23 03:24:07;;;;;;;62.22;32.55;;;8.40;99.90;;;;;;2092223;28;20026;-72
2021/09/23 03:25:08;;;;;;;68.57;32.05;;;8.30;99.90;;;;;;2089354;28;20025;-72
2021/09/23 03:26:09;;;;;;;59.72;31.75;;;8.40;99.90;;;;;;2087766;28;20029;-72
2021/09/23 03:27:10;;;;;;;65.38;32.83;;;8.40;99.90;;;;;;2096435;28;20594;-72
2021/09/23 03:28:12;;;;;;;57.30;32.00;;;8.40;99.90;;;;;;2090743;28;20104;-72
2021/09/23 03:29:14;;;;;;;;;;;8.40;99.90;;;;;;2094481;28;20028;-71
2021/09/23 03:30:15;;;;;;;55.38;30.42;;;8.40;99.90;;;;;;2096870;28;20399;-72
2021/09/23 03:31:15;;;;;;;65.57;32.75;;;8.30;99.90;;;;;;2089868;28;20021;-72
2021/09/23 03:32:16;;;;;;;59.53;31.70;;;8.30;99.90;;;;;;2096912;28;20052;-72
2021/09/23 03:33:17;;;;;;;58.30;31.52;;;8.30;99.90;;;;;;2097563;28;20560;-72
2021/09/23 03:34:17;;;;;;;64.22;33.30;;;8.30;99.90;;;;;;2090444;28;20048;-73
2021/09/23 03:35:21;;;;;;;63.67;31.00;;;8.30;99.90;;;;;;2089494;28;20465;-72
2021/09/23 03:36:22;;;;;;;64.35;32.75;;;8.20;99.90;;;;;;2095698;28;20028;-74
2021/09/23 03:37:23;;;;;;;61.30;31.77;;;8.20;99.90;;;;;;2097714;28;20025;-73
2021/09/23 03:38:24;;;;;;;61.83;32.08;;;8.20;99.90;;;;;;2098092;28;20035;-73
2021/09/23 03:39:24;;;;;;;63.90;32.92;;;8.20;99.90;;;;;;2097112;28;20024;-74
2021/09/23 03:40:26;;;;;;;66.28;32.78;;;8.20;99.90;;;;;;2097682;28;20854;-73
2021/09/23 03:41:27;;;;;;;63.85;31.40;;;8.20;99.90;;;;;;2092797;28;20082;-76
2021/09/23 03:42:27;;;;;;;61.88;32.85;;;8.20;99.90;;;;;;2089334;28;20055;-72
2021/09/23 03:43:28;;;;;;;64.80;31.33;;;8.20;99.90;;;;;;2096244;28;20104;-72
2021/09/23 03:44:29;;;;;;;59.90;31.10;;;8.30;99.90;;;;;;2095299;28;20029;-72
2021/09/23 03:45:30;;;;;;;62.72;31.33;;;8.30;99.90;;;;;;2093570;28;20028;-72
2021/09/23 03:46:32;;;;;;;59.47;32.25;;;8.30;99.90;;;;;;2087541;28;20724;-72
2021/09/23 03:47:34;;;;;;;60.80;32.00;;;8.20;99.90;;;;;;2094462;28;20504;-72
2021/09/23 03:48:34;;;;;;;61.22;30.80;;;8.20;99.90;;;;;;2097035;28;20385;-72
2021/09/23 03:49:35;;;;;;;62.13;31.10;;;8.20;99.90;;;;;;2099761;28;20035;-72
2021/09/23 03:50:36;;;;;;;57.85;31.50;;;8.20;99.90;;;;;;2089356;28;20547;-72
2021/09/23 03:51:37;;;;;;;61.13;31.65;;;8.20;99.90;;;;;;2093931;28;20044;-72
2021/09/23 03:52:39;;;;;;;55.55;30.48;;;8.20;99.90;;;;;;2093645;28;20382;-71
2021/09/23 03:53:41;;;;;;;57.28;30.05;;;8.10;99.90;;;;;;2089747;28;20029;-72
2021/09/23 03:54:42;;;;;;;;;;;8.10;99.90;;;;;;2090511;28;20067;-72
2021/09/23 03:55:43;;;;;;;53.70;28.10;;;8.10;99.90;;;;;;2098509;28;20360;-71
2021/09/23 03:56:43;;;;;;;56.42;29.67;;;8.10;99.90;;;;;;2096558;28;20028;-75
2021/09/23 03:57:45;;;;;;;57.90;30.02;;;8.10;99.90;;;;;;2090582;28;20047;-71
2021/09/23 03:58:46;;;;;;;54.83;29.55;;;8.10;99.90;;;;;;2092277;28;20062;-72
2021/09/23 03:59:46;;;;;;;64.95;30.17;;;8.10;99.90;;;;;;2093877;28;20568;-72
2021/09/23 04:00:48;;;;;;;58.58;31.27;;;8.10;99.90;;;;;;2088274;28;20020;-71
2021/09/23 04:01:49;;;;;;;62.42;32.40;;;8.10;99.90;;;;;;2085515;28;20039;-71
2021/09/23 04:02:50;;;;;;;64.80;31.50;;;8.10;99.90;;;;;;2081923;28;20084;-72
2021/09/23 04:03:51;;;;;;;54.20;28.85;;;8.10;99.90;;;;;;2085160;28;20784;-71
2021/09/23 04:04:51;;;;;;;68.40;30.63;;;8.10;99.90;;;;;;2094458;28;20032;-72
2021/09/23 04:05:52;;;;;;;59.17;31.20;;;8.10;99.90;;;;;;2096851;28;20040;-72
2021/09/23 04:06:53;;;;;;;58.40;32.17;;;8.10;99.90;;;;;;2096655;28;20074;-71
2021/09/23 04:07:53;;;;;;;63.45;30.80;;;8.10;99.90;;;;;;2099075;28;20017;-72
2021/09/23 04:08:54;;;;;;;57.67;31.35;;;8.00;99.90;;;;;;2098714;28;20487;-72
2021/09/23 04:09:55;;;;;;;59.28;31.27;;;8.00;99.90;;;;;;2098470;28;20392;-71
2021/09/23 04:10:56;;;;;;;61.92;32.67;;;8.00;99.90;;;;;;2097895;28;20025;-71
2021/09/23 04:11:57;;;;;;;55.58;30.30;;;8.00;99.90;;;;;;2097763;28;20020;-71
2021/09/23 04:12:57;;;;;;;59.90;31.88;;;8.00;99.90;;;;;;2090797;28;20024;-73
2021/09/23 04:13:58;;;;;;;65.30;32.20;;;8.00;99.90;;;;;;2090190;28;22092;-71
2021/09/23 04:14:59;;;;;;;57.30;30.48;;;8.00;99.90;;;;;;2093810;28;20029;-71
2021/09/23 04:15:59;;;;;;;68.63;31.00;;;8.00;99.90;;;;;;2094123;28;20028;-72
2021/09/23 04:17:00;;;;;;;63.08;31.75;;;8.00;99.90;;;;;;2098224;28;20040;-72
2021/09/23 04:18:01;;;;;;;59.08;31.58;;;8.00;99.90;;;;;;2098654;28;20078;-72
2021/09/23 04:19:02;;;;;;;60.83;31.52;;;7.90;99.90;;;;;;2097551;28;20078;-72
2021/09/23 04:20:04;;;;;;;63.05;30.33;;;7.90;99.90;;;;;;2098023;28;20017;-72
2021/09/23 04:21:04;;;;;;;58.43;30.33;;;7.90;99.90;;;;;;2095658;28;20043;-71
2021/09/23 04:22:05;;;;;;;64.80;32.15;;;7.90;99.90;;;;;;2089669;28;20759;-72
2021/09/23 04:23:06;;;;;;;65.03;32.95;;;7.80;99.90;;;;;;2089542;28;20687;-72
2021/09/23 04:24:07;;;;;;;68.00;33.67;;;7.80;99.90;;;;;;2095558;28;20040;-72
2021/09/23 04:25:08;;;;;;;66.28;33.22;;;7.80;99.90;;;;;;2089954;28;20437;-72
2021/09/23 04:26:09;;;;;;;70.90;34.40;;;7.80;99.90;;;;;;2094227;28;20028;-72
2021/09/23 04:27:10;;;;;;;63.78;32.50;;;7.80;99.90;;;;;;2097622;28;20496;-71
2021/09/23 04:28:11;;;;;;;63.30;32.92;;;7.80;99.90;;;;;;2096742;28;20032;-71
2021/09/23 04:29:12;;;;;;;67.30;32.95;;;7.80;99.90;;;;;;2089590;28;20214;-72
2021/09/23 04:30:13;;;;;;;65.72;33.70;;;7.80;99.90;;;;;;2089485;28;20036;-72
2021/09/23 04:31:13;;;;;;;61.38;32.55;;;7.80;99.90;;;;;;2092948;28;20021;-72
2021/09/23 04:32:15;;;;;;;71.95;34.05;;;7.80;99.90;;;;;;2092262;28;20032;-72
2021/09/23 04:33:15;;;;;;;71.67;35.17;;;7.80;99.90;;;;;;2090822;28;20408;-72
2021/09/23 04:34:16;;;;;;;67.05;31.05;;;7.80;99.90;;;;;;2097582;28;20263;-72
2021/09/23 04:35:17;;;;;;;63.38;32.95;;;7.80;99.90;;;;;;2094060;28;20480;-72
2021/09/23 04:36:17;;;;;;;60.50;31.00;;;7.80;99.90;;;;;;2093585;28;20021;-72
2021/09/23 04:37:18;;;;;;;65.70;33.28;;;7.80;99.90;;;;;;2090352;28;20067;-72
2021/09/23 04:38:19;;;;;;;68.38;31.90;;;7.80;99.90;;;;;;2097745;28;20033;-72
2021/09/23 04:39:19;;;;;;;59.40;30.73;;;7.80;99.90;;;;;;2089128;28;20079;-72
2021/09/23 04:40:20;;;;;;;61.75;31.40;;;7.70;99.90;;;;;;2098044;28;20024;-72
2021/09/23 04:41:21;;;;;;;63.92;32.88;;;7.70;99.90;;;;;;2097664;28;20447;-72
2021/09/23 04:42:22;;;;;;;59.72;31.02;;;7.70;99.90;;;;;;2098146;28;20099;-72
2021/09/23 04:43:22;;;;;;;62.08;31.42;;;7.70;99.90;;;;;;2097310;28;20017;-72
2021/09/23 04:44:25;;;;;;;62.65;32.20;;;7.70;99.90;;;;;;2089135;28;20025;-73
2021/09/23 04:45:26;;;;;;;59.67;30.67;;;7.70;99.90;;;;;;2090604;28;20032;-72
2021/09/23 04:46:26;;;;;;;62.83;30.25;;;7.70;99.90;;;;;;2094551;28;20441;-73
2021/09/23 04:47:27;;;;;;;60.65;31.08;;;7.60;99.90;;;;;;2090968;28;20025;-73
2021/09/23 04:48:28;;;;;;;64.53;32.33;;;7.60;99.90;;;;;;2090700;28;20020;-72
2021/09/23 04:49:29;;;;;;;59.25;31.13;;;7.60;99.90;;;;;;2092512;28;20035;-73
2021/09/23 04:50:30;;;;;;;65.18;32.60;;;7.70;99.90;;;;;;2092543;28;20052;-73
2021/09/23 04:51:31;;;;;;;54.80;30.40;;;7.60;99.90;;;;;;2095152;28;20029;-72
2021/09/23 04:52:32;;;;;;;55.42;29.25;;;7.70;99.90;;;;;;2088948;28;20064;-73
2021/09/23 04:53:32;;;;;;;68.28;32.13;;;7.60;99.90;;;;;;2090685;28;20032;-72
2021/09/23 04:54:33;;;;;;;59.97;32.08;;;7.60;99.90;;;;;;2089677;28;20024;-71
2021/09/23 04:55:34;;;;;;;57.53;30.83;;;7.60;99.90;;;;;;2097164;28;20028;-72
2021/09/23 04:56:35;;;;;;;61.10;32.28;;;7.60;99.90;;;;;;2097100;28;20092;-73
2021/09/23 04:57:36;;;;;;;61.55;31.42;;;7.60;99.90;;;;;;2094989;28;20052;-72
2021/09/23 04:58:37;;;;;;;58.17;30.58;;;7.60;99.90;;;;;;2093565;28;20032;-72
2021/09/23 04:59:37;;;;;;;66.75;32.03;;;7.60;99.90;;;;;;2089571;28;20067;-70
2021/09/23 05:00:38;;;;;;;69.63;33.65;;;7.70;99.90;;;;;;2089519;28;20029;-71
2021/09/23 05:01:39;;;;;;;63.58;31.58;;;7.60;99.90;;;;;;2088805;28;20056;-71
2021/09/23 05:02:39;;;;;;;68.00;33.38;;;7.60;99.90;;;;;;2093704;28;20020;-72
2021/09/23 05:03:40;;;;;;;61.15;31.30;;;7.60;99.90;;;;;;2088632;28;20033;-72
2021/09/23 05:04:44;;;;;;;68.13;32.28;;;7.60;99.90;;;;;;2096977;28;20025;-71
2021/09/23 05:05:45;;;;;;;65.90;30.73;;;7.60;99.90;;;;;;2089687;28;20025;-72
2021/09/23 05:06:45;;;;;;;62.25;31.85;;;7.60;99.90;;;;;;2090446;28;20193;-73
2021/09/23 05:07:46;;;;;;;63.47;31.33;;;7.60;99.90;;;;;;2089763;28;20566;-74
2021/09/23 05:08:47;;;;;;;61.92;31.33;;;7.60;99.90;;;;;;2091228;28;20077;-73
2021/09/23 05:09:47;;;;;;;65.10;32.05;;;7.60;99.90;;;;;;2090822;28;20063;-74
2021/09/23 05:10:48;;;;;;;57.72;29.15;;;7.60;99.90;;;;;;2091743;28;20087;-72
2021/09/23 05:11:50;;;;;;;56.67;30.33;;;7.70;99.90;;;;;;2094525;28;20078;-74
2021/09/23 05:12:50;;;;;;;57.22;30.27;;;7.70;99.90;;;;;;2097273;28;20119;-76
2021/09/23 05:13:52;;;;;;;60.20;30.15;;;7.70;99.90;;;;;;2097565;28;20024;-72